sensor_id;sensor_type;location;lat;lon;timestamp;pressure;altitude;pressure_sealevel;temperature;humidity
56894;BME280;43392;50.078;13.704;2023-12-20T11:13:32;96598.50;;;4.64;83.98
56894;BME280;43392;50.078;13.704;2023-12-20T11:16:00;96592.97;;;4.92;84.31
56894;BME280;43392;50.078;13.704;2023-12-20T11:18:28;96591.31;;;5.08;84.37
56894;BME280;43392;50.078;13.704;2023-12-20T11:21:00;96583.50;;;5.23;84.35
56894;BME280;43392;50.078;13.704;2023-12-20T11:23:27;96582.59;;;5.39;84.03
56894;BME280;43392;50.078;13.704;2023-12-20T11:25:56;96575.81;;;5.53;82.40
56894;BME280;43392;50.078;13.704;2023-12-20T11:28:24;96582.56;;;5.66;81.86
56894;BME280;43392;50.078;13.704;2023-12-20T11:30:55;96578.25;;;5.60;82.58
56894;BME280;43392;50.078;13.704;2023-12-20T11:33:22;96573.50;;;5.62;81.37
56894;BME280;43392;50.078;13.704;2023-12-20T11:35:49;96568.53;;;5.75;81.71
56894;BME280;43392;50.078;13.704;2023-12-20T11:38:16;96569.50;;;5.91;80.47
56894;BME280;43392;50.078;13.704;2023-12-20T11:40:43;96559.19;;;5.99;79.06
56894;BME280;43392;50.078;13.704;2023-12-20T11:43:10;96549.91;;;6.07;78.29
56894;BME280;43392;50.078;13.704;2023-12-20T11:45:37;96558.53;;;6.24;77.93
56894;BME280;43392;50.078;13.704;2023-12-20T11:48:06;96543.41;;;6.35;76.22
56894;BME280;43392;50.078;13.704;2023-12-20T11:50:33;96541.88;;;6.44;74.89
56894;BME280;43392;50.078;13.704;2023-12-20T11:53:03;96548.31;;;6.53;74.01
56894;BME280;43392;50.078;13.704;2023-12-20T11:55:29;96548.34;;;6.58;73.63
56894;BME280;43392;50.078;13.704;2023-12-20T11:57:56;96549.91;;;6.49;71.22
56894;BME280;43392;50.078;13.704;2023-12-20T12:00:23;96552.22;;;6.40;71.05
56894;BME280;43392;50.078;13.704;2023-12-20T12:02:58;96552.22;;;6.40;70.34
56894;BME280;43392;50.078;13.704;2023-12-20T12:05:26;96555.47;;;6.47;70.69
56894;BME280;43392;50.078;13.704;2023-12-20T12:07:53;96549.88;;;6.44;69.68
56894;BME280;43392;50.078;13.704;2023-12-20T12:10:19;96548.88;;;6.60;69.86
56894;BME280;43392;50.078;13.704;2023-12-20T12:12:46;96544.59;;;6.54;69.21
56894;BME280;43392;50.078;13.704;2023-12-20T12:15:13;96537.41;;;6.59;69.85
56894;BME280;43392;50.078;13.704;2023-12-20T12:17:40;96533.75;;;6.71;69.33
56894;BME280;43392;50.078;13.704;2023-12-20T12:20:08;96525.16;;;6.58;68.94
56894;BME280;43392;50.078;13.704;2023-12-20T12:22:36;96524.59;;;6.51;68.58
56894;BME280;43392;50.078;13.704;2023-12-20T12:25:10;96530.91;;;6.35;68.06
56894;BME280;43392;50.078;13.704;2023-12-20T12:27:37;96540.41;;;6.21;68.23
56894;BME280;43392;50.078;13.704;2023-12-20T12:30:05;96546.25;;;6.18;69.25
56894;BME280;43392;50.078;13.704;2023-12-20T12:32:33;96528.63;;;6.07;68.91
56894;BME280;43392;50.078;13.704;2023-12-20T12:35:00;96547.72;;;5.99;69.11
56894;BME280;43392;50.078;13.704;2023-12-20T12:37:26;96527.69;;;5.86;69.12
56894;BME280;43392;50.078;13.704;2023-12-20T12:39:54;96539.00;;;5.77;69.28
56894;BME280;43392;50.078;13.704;2023-12-20T12:42:21;96528.38;;;5.77;69.38
56894;BME280;43392;50.078;13.704;2023-12-20T12:44:51;96531.53;;;5.69;69.25
56894;BME280;43392;50.078;13.704;2023-12-20T12:47:17;96523.00;;;5.72;69.26
56894;BME280;43392;50.078;13.704;2023-12-20T12:49:44;96544.28;;;5.72;69.05
56894;BME280;43392;50.078;13.704;2023-12-20T12:52:11;96532.56;;;5.68;69.63
56894;BME280;43392;50.078;13.704;2023-12-20T12:54:37;96526.44;;;5.67;69.64
56894;BME280;43392;50.078;13.704;2023-12-20T12:57:05;96539.97;;;5.61;69.49
56894;BME280;43392;50.078;13.704;2023-12-20T12:59:32;96539.16;;;5.60;69.56
56894;BME280;43392;50.078;13.704;2023-12-20T13:01:59;96526.72;;;5.66;70.05
56894;BME280;43392;50.078;13.704;2023-12-20T13:04:25;96532.56;;;5.68;69.98
56894;BME280;43392;50.078;13.704;2023-12-20T13:06:52;96526.66;;;5.61;69.33
56894;BME280;43392;50.078;13.704;2023-12-20T13:09:19;96521.47;;;5.76;69.29
56894;BME280;43392;50.078;13.704;2023-12-20T13:11:45;96517.19;;;5.75;69.02
56894;BME280;43392;50.078;13.704;2023-12-20T13:14:13;96521.84;;;5.89;69.03
56894;BME280;43392;50.078;13.704;2023-12-20T13:16:40;96522.16;;;5.93;69.04
56894;BME280;43392;50.078;13.704;2023-12-20T13:19:07;96516.72;;;5.83;68.49
56894;BME280;43392;50.078;13.704;2023-12-20T13:21:35;96516.72;;;5.83;68.74
56894;BME280;43392;50.078;13.704;2023-12-20T13:24:02;96510.88;;;5.81;69.20
56894;BME280;43392;50.078;13.704;2023-12-20T13:26:28;96519.00;;;5.69;68.95
56894;BME280;43392;50.078;13.704;2023-12-20T13:28:55;96519.56;;;5.71;69.42
56894;BME280;43392;50.078;13.704;2023-12-20T13:31:23;96526.22;;;5.69;69.21
56894;BME280;43392;50.078;13.704;2023-12-20T13:33:50;96538.88;;;5.57;69.37
56894;BME280;43392;50.078;13.704;2023-12-20T13:36:17;96531.41;;;5.54;70.08
56894;BME280;43392;50.078;13.704;2023-12-20T13:38:44;96526.53;;;5.46;70.20
56894;BME280;43392;50.078;13.704;2023-12-20T13:41:10;96532.34;;;5.43;70.70
56894;BME280;43392;50.078;13.704;2023-12-20T13:43:37;96524.94;;;5.45;70.73
56894;BME280;43392;50.078;13.704;2023-12-20T13:46:04;96528.47;;;5.55;70.78
56894;BME280;43392;50.078;13.704;2023-12-20T13:48:32;96510.47;;;5.67;71.12
56894;BME280;43392;50.078;13.704;2023-12-20T13:50:58;96501.78;;;5.77;71.08
56894;BME280;43392;50.078;13.704;2023-12-20T13:53:25;96506.00;;;5.73;70.23
56894;BME280;43392;50.078;13.704;2023-12-20T13:55:52;96502.78;;;5.66;70.33
56894;BME280;43392;50.078;13.704;2023-12-20T13:58:18;96496.59;;;5.60;70.09
56894;BME280;43392;50.078;13.704;2023-12-20T14:00:45;96485.97;;;5.60;70.23
56894;BME280;43392;50.078;13.704;2023-12-20T14:03:12;96503.78;;;5.60;70.09
56894;BME280;43392;50.078;13.704;2023-12-20T14:05:40;96496.81;;;5.54;69.82
56894;BME280;43392;50.078;13.704;2023-12-20T14:08:07;96489.84;;;5.48;69.97
56894;BME280;43392;50.078;13.704;2023-12-20T14:10:34;96500.72;;;5.41;70.32
56894;BME280;43392;50.078;13.704;2023-12-20T14:13:01;96490.84;;;5.36;70.77
56894;BME280;43392;50.078;13.704;2023-12-20T14:15:27;96498.78;;;5.31;71.08
56894;BME280;43392;50.078;13.704;2023-12-20T14:17:54;96497.09;;;5.20;71.32
56894;BME280;43392;50.078;13.704;2023-12-20T14:20:21;96491.19;;;5.13;71.87
56894;BME280;43392;50.078;13.704;2023-12-20T14:22:49;96484.50;;;5.11;72.14
56894;BME280;43392;50.078;13.704;2023-12-20T14:25:15;96502.81;;;5.07;72.40
56894;BME280;43392;50.078;13.704;2023-12-20T14:27:42;96504.59;;;5.02;72.69
56894;BME280;43392;50.078;13.704;2023-12-20T14:30:10;96494.50;;;4.99;72.75
56894;BME280;43392;50.078;13.704;2023-12-20T14:32:39;96490.22;;;4.98;73.15
56894;BME280;43392;50.078;13.704;2023-12-20T14:35:06;96490.97;;;4.93;73.38
56894;BME280;43392;50.078;13.704;2023-12-20T14:37:33;96482.47;;;4.91;73.64
56894;BME280;43392;50.078;13.704;2023-12-20T14:40:01;96476.34;;;4.91;73.76
56894;BME280;43392;50.078;13.704;2023-12-20T14:42:28;96465.97;;;4.89;73.82
56894;BME280;43392;50.078;13.704;2023-12-20T14:44:55;96457.69;;;4.86;73.82
56894;BME280;43392;50.078;13.704;2023-12-20T14:47:22;96470.16;;;4.85;73.80
56894;BME280;43392;50.078;13.704;2023-12-20T14:49:50;96470.16;;;4.85;73.85
56894;BME280;43392;50.078;13.704;2023-12-20T14:52:17;96448.13;;;4.85;74.05
56894;BME280;43392;50.078;13.704;2023-12-20T14:54:44;96452.88;;;4.83;74.39
56894;BME280;43392;50.078;13.704;2023-12-20T14:57:12;96448.06;;;4.80;74.62
56894;BME280;43392;50.078;13.704;2023-12-20T14:59:39;96450.44;;;4.76;74.59
56894;BME280;43392;50.078;13.704;2023-12-20T15:02:06;96426.78;;;4.75;74.87
56894;BME280;43392;50.078;13.704;2023-12-20T15:04:32;96424.63;;;4.72;74.81
56894;BME280;43392;50.078;13.704;2023-12-20T15:06:59;96416.91;;;4.70;75.33
56894;BME280;43392;50.078;13.704;2023-12-20T15:09:27;96424.31;;;4.68;75.59
56894;BME280;43392;50.078;13.704;2023-12-20T15:11:55;96426.44;;;4.66;75.96
56894;BME280;43392;50.078;13.704;2023-12-20T15:14:23;96418.97;;;4.63;76.00
56894;BME280;43392;50.078;13.704;2023-12-20T15:16:49;96430.09;;;4.60;76.24
56894;BME280;43392;50.078;13.704;2023-12-20T15:19:16;96434.28;;;4.56;76.63
56894;BME280;43392;50.078;13.704;2023-12-20T15:21:42;96456.06;;;4.58;76.77
56894;BME280;43392;50.078;13.704;2023-12-20T15:24:09;96462.47;;;4.57;76.90
56894;BME280;43392;50.078;13.704;2023-12-20T15:26:40;96457.91;;;4.52;77.14
56894;BME280;43392;50.078;13.704;2023-12-20T15:29:07;96454.44;;;4.52;76.72
56894;BME280;43392;50.078;13.704;2023-12-20T15:31:36;96459.75;;;4.52;76.70
56894;BME280;43392;50.078;13.704;2023-12-20T15:34:03;96458.72;;;4.53;76.89
56894;BME280;43392;50.078;13.704;2023-12-20T15:36:29;96468.50;;;4.52;76.96
56894;BME280;43392;50.078;13.704;2023-12-20T15:38:57;96458.13;;;4.51;76.90
56894;BME280;43392;50.078;13.704;2023-12-20T15:41:23;96459.19;;;4.50;76.51
56894;BME280;43392;50.078;13.704;2023-12-20T15:43:50;96456.53;;;4.50;76.67
56894;BME280;43392;50.078;13.704;2023-12-20T15:46:16;96460.22;;;4.49;76.52
56894;BME280;43392;50.078;13.704;2023-12-20T15:48:44;96456.00;;;4.48;76.61
56894;BME280;43392;50.078;13.704;2023-12-20T15:51:11;96456.00;;;4.48;76.64
56894;BME280;43392;50.078;13.704;2023-12-20T15:53:38;96463.38;;;4.46;76.50
56894;BME280;43392;50.078;13.704;2023-12-20T15:56:05;96462.81;;;4.44;76.38
56894;BME280;43392;50.078;13.704;2023-12-20T15:58:32;96473.72;;;4.42;76.38
56894;BME280;43392;50.078;13.704;2023-12-20T16:00:59;96478.69;;;4.39;76.66
56894;BME280;43392;50.078;13.704;2023-12-20T16:03:26;96468.88;;;4.39;76.70
56894;BME280;43392;50.078;13.704;2023-12-20T16:05:54;96476.84;;;4.39;76.63
56894;BME280;43392;50.078;13.704;2023-12-20T16:08:21;96463.84;;;4.38;76.62
56894;BME280;43392;50.078;13.704;2023-12-20T16:10:47;96477.41;;;4.41;76.43
56894;BME280;43392;50.078;13.704;2023-12-20T16:13:14;96478.75;;;4.44;76.39
56894;BME280;43392;50.078;13.704;2023-12-20T16:15:41;96469.97;;;4.43;76.50
56894;BME280;43392;50.078;13.704;2023-12-20T16:18:09;96456.97;;;4.42;76.20
56894;BME280;43392;50.078;13.704;2023-12-20T16:20:36;96458.81;;;4.41;76.28
56894;BME280;43392;50.078;13.704;2023-12-20T16:23:04;96452.69;;;4.41;76.25
56894;BME280;43392;50.078;13.704;2023-12-20T16:25:31;96448.47;;;4.40;76.28
56894;BME280;43392;50.078;13.704;2023-12-20T16:27:58;96445.00;;;4.39;76.46
56894;BME280;43392;50.078;13.704;2023-12-20T16:30:25;96446.06;;;4.38;76.49
56894;BME280;43392;50.078;13.704;2023-12-20T16:32:51;96435.69;;;4.37;76.62
56894;BME280;43392;50.078;13.704;2023-12-20T16:35:18;96442.28;;;4.34;76.68
56894;BME280;43392;50.078;13.704;2023-12-20T16:37:44;96440.13;;;4.31;76.62
56894;BME280;43392;50.078;13.704;2023-12-20T16:40:13;96437.72;;;4.30;76.61
56894;BME280;43392;50.078;13.704;2023-12-20T16:42:39;96443.03;;;4.30;76.64
56894;BME280;43392;50.078;13.704;2023-12-20T16:45:07;96444.66;;;4.31;76.54
56894;BME280;43392;50.078;13.704;2023-12-20T16:47:34;96439.56;;;4.29;76.62
56894;BME280;43392;50.078;13.704;2023-12-20T16:50:01;96444.31;;;4.27;76.94
56894;BME280;43392;50.078;13.704;2023-12-20T16:52:31;96443.53;;;4.27;76.90
56894;BME280;43392;50.078;13.704;2023-12-20T16:54:58;96435.00;;;4.25;76.71
56894;BME280;43392;50.078;13.704;2023-12-20T16:57:26;96458.66;;;4.26;77.02
56894;BME280;43392;50.078;13.704;2023-12-20T16:59:52;96449.63;;;4.27;77.05
56894;BME280;43392;50.078;13.704;2023-12-20T17:02:19;96448.28;;;4.25;77.17
56894;BME280;43392;50.078;13.704;2023-12-20T17:04:45;96448.28;;;4.25;77.02
56894;BME280;43392;50.078;13.704;2023-12-20T17:07:12;96442.47;;;4.28;77.27
56894;BME280;43392;50.078;13.704;2023-12-20T17:09:39;96432.13;;;4.26;77.31
56894;BME280;43392;50.078;13.704;2023-12-20T17:12:06;96416.97;;;4.27;77.40
56894;BME280;43392;50.078;13.704;2023-12-20T17:14:34;96395.75;;;4.27;77.41
56894;BME280;43392;50.078;13.704;2023-12-20T17:17:01;96401.88;;;4.27;77.36
56894;BME280;43392;50.078;13.704;2023-12-20T17:19:28;96395.53;;;4.28;77.49
56894;BME280;43392;50.078;13.704;2023-12-20T17:21:57;96399.72;;;4.51;82.51
56894;BME280;43392;50.078;13.704;2023-12-20T17:24:23;96408.31;;;5.21;82.77
56894;BME280;43392;50.078;13.704;2023-12-20T17:26:50;96407.84;;;5.29;78.86
56894;BME280;43392;50.078;13.704;2023-12-20T17:29:16;96414.13;;;5.18;77.72
56894;BME280;43392;50.078;13.704;2023-12-20T17:31:44;96425.44;;;5.04;77.49
56894;BME280;43392;50.078;13.704;2023-12-20T17:34:11;96436.75;;;4.89;77.33
56894;BME280;43392;50.078;13.704;2023-12-20T17:36:39;96439.88;;;4.81;77.22
56894;BME280;43392;50.078;13.704;2023-12-20T17:39:06;96456.78;;;4.75;77.33
56894;BME280;43392;50.078;13.704;2023-12-20T17:41:33;96461.00;;;4.71;77.11
56894;BME280;43392;50.078;13.704;2023-12-20T17:44:00;96463.88;;;4.64;77.34
56894;BME280;43392;50.078;13.704;2023-12-20T17:46:27;96466.75;;;4.63;77.37
56894;BME280;43392;50.078;13.704;2023-12-20T17:48:55;96467.75;;;4.57;77.53
56894;BME280;43392;50.078;13.704;2023-12-20T17:51:22;96464.56;;;4.55;77.47
56894;BME280;43392;50.078;13.704;2023-12-20T17:53:48;96454.72;;;4.55;77.60
56894;BME280;43392;50.078;13.704;2023-12-20T17:56:15;96450.22;;;4.56;77.85
56894;BME280;43392;50.078;13.704;2023-12-20T17:58:42;96450.22;;;4.56;77.87
56894;BME280;43392;50.078;13.704;2023-12-20T18:01:09;96455.53;;;4.56;77.83
56894;BME280;43392;50.078;13.704;2023-12-20T18:03:38;96456.59;;;4.55;77.72
56894;BME280;43392;50.078;13.704;2023-12-20T18:06:06;96452.31;;;4.54;77.86
56894;BME280;43392;50.078;13.704;2023-12-20T18:08:33;96457.38;;;4.55;77.94
56894;BME280;43392;50.078;13.704;2023-12-20T18:11:00;96462.47;;;4.57;78.04
56894;BME280;43392;50.078;13.704;2023-12-20T18:13:27;96464.63;;;4.60;78.09
56894;BME280;43392;50.078;13.704;2023-12-20T18:15:53;96448.38;;;4.56;78.07
56894;BME280;43392;50.078;13.704;2023-12-20T18:18:20;96457.69;;;4.59;78.07
56894;BME280;43392;50.078;13.704;2023-12-20T18:20:46;96463.31;;;4.62;78.02
56894;BME280;43392;50.078;13.704;2023-12-20T18:23:14;96472.06;;;4.63;78.14
56894;BME280;43392;50.078;13.704;2023-12-20T18:25:41;96474.50;;;4.64;78.09
56894;BME280;43392;50.078;13.704;2023-12-20T18:28:08;96475.28;;;4.65;78.13
56894;BME280;43392;50.078;13.704;2023-12-20T18:30:34;96483.81;;;4.67;77.94
56894;BME280;43392;50.078;13.704;2023-12-20T18:33:01;96479.53;;;4.66;78.07
56894;BME280;43392;50.078;13.704;2023-12-20T18:35:28;96481.66;;;4.64;77.99
56894;BME280;43392;50.078;13.704;2023-12-20T18:37:56;96485.06;;;4.59;78.09
56894;BME280;43392;50.078;13.704;2023-12-20T18:40:24;96473.31;;;4.55;78.12
56894;BME280;43392;50.078;13.704;2023-12-20T18:42:52;96479.75;;;4.59;78.24
56894;BME280;43392;50.078;13.704;2023-12-20T18:45:19;96461.44;;;4.63;78.18
56894;BME280;43392;50.078;13.704;2023-12-20T18:47:45;96460.94;;;4.66;78.16
56894;BME280;43392;50.078;13.704;2023-12-20T18:50:12;96460.94;;;4.66;78.17
56894;BME280;43392;50.078;13.704;2023-12-20T18:52:39;96460.47;;;4.69;78.20
56894;BME280;43392;50.078;13.704;2023-12-20T18:55:06;96465.50;;;4.70;78.11
56894;BME280;43392;50.078;13.704;2023-12-20T18:57:34;96465.78;;;4.69;78.11
56894;BME280;43392;50.078;13.704;2023-12-20T19:00:01;96461.00;;;4.71;78.10
56894;BME280;43392;50.078;13.704;2023-12-20T19:02:28;96467.94;;;4.72;78.07
56894;BME280;43392;50.078;13.704;2023-12-20T19:04:56;96469.53;;;4.73;78.27
56894;BME280;43392;50.078;13.704;2023-12-20T19:07:22;96463.97;;;4.75;78.03
56894;BME280;43392;50.078;13.704;2023-12-20T19:09:49;96463.72;;;4.76;78.18
56894;BME280;43392;50.078;13.704;2023-12-20T19:12:16;96461.06;;;4.76;78.01
56894;BME280;43392;50.078;13.704;2023-12-20T19:14:44;96479.09;;;4.74;78.36
56894;BME280;43392;50.078;13.704;2023-12-20T19:17:10;96463.66;;;4.71;78.18
56894;BME280;43392;50.078;13.704;2023-12-20T19:19:37;96464.47;;;4.72;78.21
56894;BME280;43392;50.078;13.704;2023-12-20T19:22:04;96459.66;;;4.68;78.38
56894;BME280;43392;50.078;13.704;2023-12-20T19:24:30;96459.66;;;4.68;78.44
56894;BME280;43392;50.078;13.704;2023-12-20T19:26:57;96459.91;;;4.67;78.50
56894;BME280;43392;50.078;13.704;2023-12-20T19:29:24;96452.97;;;4.66;78.33
56894;BME280;43392;50.078;13.704;2023-12-20T19:31:52;96452.50;;;4.69;78.34
56894;BME280;43392;50.078;13.704;2023-12-20T19:34:19;96457.53;;;4.70;78.49
56894;BME280;43392;50.078;13.704;2023-12-20T19:36:45;96445.88;;;4.72;78.59
56894;BME280;43392;50.078;13.704;2023-12-20T19:39:12;96444.03;;;4.72;78.39
56894;BME280;43392;50.078;13.704;2023-12-20T19:41:38;96446.69;;;4.72;78.38
56894;BME280;43392;50.078;13.704;2023-12-20T19:44:05;96447.47;;;4.72;78.51
56894;BME280;43392;50.078;13.704;2023-12-20T19:46:33;96436.06;;;4.72;78.60
56894;BME280;43392;50.078;13.704;2023-12-20T19:49:01;96433.09;;;4.68;78.49
56894;BME280;43392;50.078;13.704;2023-12-20T19:51:28;96431.78;;;4.71;78.70
56894;BME280;43392;50.078;13.704;2023-12-20T19:53:55;96435.25;;;4.72;78.75
56894;BME280;43392;50.078;13.704;2023-12-20T19:56:22;96431.25;;;4.69;78.84
56894;BME280;43392;50.078;13.704;2023-12-20T19:58:48;96431.25;;;4.69;78.83
56894;BME280;43392;50.078;13.704;2023-12-20T20:01:15;96423.03;;;4.70;79.02
56894;BME280;43392;50.078;13.704;2023-12-20T20:03:41;96413.19;;;4.71;78.92
56894;BME280;43392;50.078;13.704;2023-12-20T20:06:09;96427.28;;;4.72;78.78
56894;BME280;43392;50.078;13.704;2023-12-20T20:08:36;96412.94;;;4.72;79.10
56894;BME280;43392;50.078;13.704;2023-12-20T20:11:03;96426.22;;;4.72;78.97
56894;BME280;43392;50.078;13.704;2023-12-20T20:13:29;96417.75;;;4.76;79.01
56894;BME280;43392;50.078;13.704;2023-12-20T20:15:56;96420.41;;;4.76;78.99
56894;BME280;43392;50.078;13.704;2023-12-20T20:18:24;96408.47;;;4.78;78.91
56894;BME280;43392;50.078;13.704;2023-12-20T20:20:51;96407.69;;;4.78;78.89
56894;BME280;43392;50.078;13.704;2023-12-20T20:23:19;96414.59;;;4.79;78.91
56894;BME280;43392;50.078;13.704;2023-12-20T20:25:45;96399.16;;;4.76;78.94
56894;BME280;43392;50.078;13.704;2023-12-20T20:28:12;96411.94;;;4.79;79.02
56894;BME280;43392;50.078;13.704;2023-12-20T20:30:39;96401.59;;;4.77;79.05
56894;BME280;43392;50.078;13.704;2023-12-20T20:33:06;96382.41;;;4.75;79.01
56894;BME280;43392;50.078;13.704;2023-12-20T20:35:33;96374.72;;;4.74;78.93
56894;BME280;43392;50.078;13.704;2023-12-20T20:37:59;96388.25;;;4.72;79.14
56894;BME280;43392;50.078;13.704;2023-12-20T20:40:27;96394.34;;;4.72;78.98
56894;BME280;43392;50.078;13.704;2023-12-20T20:42:54;96385.56;;;4.67;79.23
56894;BME280;43392;50.078;13.704;2023-12-20T20:45:20;96386.91;;;4.69;78.97
56894;BME280;43392;50.078;13.704;2023-12-20T20:47:48;96390.34;;;4.70;79.09
56894;BME280;43392;50.078;13.704;2023-12-20T20:50:14;96391.97;;;4.71;79.14
56894;BME280;43392;50.078;13.704;2023-12-20T20:52:41;96387.44;;;4.72;79.11
56894;BME280;43392;50.078;13.704;2023-12-20T20:55:12;96390.91;;;4.72;79.15
56894;BME280;43392;50.078;13.704;2023-12-20T20:57:40;96396.78;;;4.74;78.76
56894;BME280;43392;50.078;13.704;2023-12-20T21:00:07;96387.44;;;4.72;78.64
56894;BME280;43392;50.078;13.704;2023-12-20T21:02:34;96393.03;;;4.75;78.78
56894;BME280;43392;50.078;13.704;2023-12-20T21:05:01;96391.19;;;4.76;78.69
56894;BME280;43392;50.078;13.704;2023-12-20T21:07:31;96387.78;;;4.80;78.65
56894;BME280;43392;50.078;13.704;2023-12-20T21:09:58;96398.16;;;4.82;78.62
56894;BME280;43392;50.078;13.704;2023-12-20T21:12:25;96389.94;;;4.83;78.56
56894;BME280;43392;50.078;13.704;2023-12-20T21:14:54;96383.81;;;4.83;78.55
56894;BME280;43392;50.078;13.704;2023-12-20T21:17:21;96374.81;;;4.84;78.62
56894;BME280;43392;50.078;13.704;2023-12-20T21:19:48;96374.81;;;4.84;78.63
56894;BME280;43392;50.078;13.704;2023-12-20T21:22:15;96378.50;;;4.83;78.69
56894;BME280;43392;50.078;13.704;2023-12-20T21:24:41;96371.88;;;4.85;78.56
56894;BME280;43392;50.078;13.704;2023-12-20T21:27:08;96365.53;;;4.86;78.67
56894;BME280;43392;50.078;13.704;2023-12-20T21:29:34;96356.50;;;4.87;78.73
56894;BME280;43392;50.078;13.704;2023-12-20T21:32:03;96361.03;;;4.87;78.81
56894;BME280;43392;50.078;13.704;2023-12-20T21:34:30;96364.72;;;4.86;78.81
56894;BME280;43392;50.078;13.704;2023-12-20T21:36:57;96358.59;;;4.85;78.75
56894;BME280;43392;50.078;13.704;2023-12-20T21:39:23;96332.31;;;4.84;78.97
56894;BME280;43392;50.078;13.704;2023-12-20T21:41:52;96331.78;;;4.82;78.93
56894;BME280;43392;50.078;13.704;2023-12-20T21:44:20;96326.69;;;4.80;79.09
56894;BME280;43392;50.078;13.704;2023-12-20T21:46:46;96335.19;;;4.82;78.94
56894;BME280;43392;50.078;13.704;2023-12-20T21:49:14;96319.53;;;4.81;78.99
56894;BME280;43392;50.078;13.704;2023-12-20T21:51:41;96322.44;;;4.79;78.99
56894;BME280;43392;50.078;13.704;2023-12-20T21:54:07;96328.53;;;4.80;79.11
56894;BME280;43392;50.078;13.704;2023-12-20T21:56:35;96320.56;;;4.80;79.31
56894;BME280;43392;50.078;13.704;2023-12-20T21:59:02;96320.03;;;4.78;79.50
56894;BME280;43392;50.078;13.704;2023-12-20T22:01:28;96322.69;;;4.78;79.52
56894;BME280;43392;50.078;13.704;2023-12-20T22:03:55;96311.28;;;4.77;79.54
56894;BME280;43392;50.078;13.704;2023-12-20T22:06:23;96304.34;;;4.76;79.46
56894;BME280;43392;50.078;13.704;2023-12-20T22:08:50;96292.13;;;4.75;79.54
56894;BME280;43392;50.078;13.704;2023-12-20T22:11:16;96296.91;;;4.73;79.64
56894;BME280;43392;50.078;13.704;2023-12-20T22:13:43;96297.69;;;4.74;79.58
56894;BME280;43392;50.078;13.704;2023-12-20T22:16:09;96301.16;;;4.74;79.66
56894;BME280;43392;50.078;13.704;2023-12-20T22:18:37;96296.66;;;4.75;79.58
56894;BME280;43392;50.078;13.704;2023-12-20T22:21:04;96302.75;;;4.75;79.56
56894;BME280;43392;50.078;13.704;2023-12-20T22:23:32;96287.88;;;4.74;79.63
56894;BME280;43392;50.078;13.704;2023-12-20T22:25:59;96281.75;;;4.74;79.64
56894;BME280;43392;50.078;13.704;2023-12-20T22:28:25;96267.94;;;4.72;79.80
56894;BME280;43392;50.078;13.704;2023-12-20T22:30:53;96280.41;;;4.71;79.87
56894;BME280;43392;50.078;13.704;2023-12-20T22:33:19;96276.16;;;4.70;80.20
56894;BME280;43392;50.078;13.704;2023-12-20T22:35:46;96265.53;;;4.70;80.03
56894;BME280;43392;50.078;13.704;2023-12-20T22:38:13;96260.75;;;4.67;80.12
56894;BME280;43392;50.078;13.704;2023-12-20T22:40:41;96257.56;;;4.65;80.29
56894;BME280;43392;50.078;13.704;2023-12-20T22:43:08;96247.97;;;4.64;80.50
56894;BME280;43392;50.078;13.704;2023-12-20T22:45:34;96246.63;;;4.61;80.54
56894;BME280;43392;50.078;13.704;2023-12-20T22:48:03;96242.13;;;4.62;80.70
56894;BME280;43392;50.078;13.704;2023-12-20T22:50:29;96245.28;;;4.59;80.75
56894;BME280;43392;50.078;13.704;2023-12-20T22:52:56;96244.78;;;4.62;80.76
56894;BME280;43392;50.078;13.704;2023-12-20T22:55:23;96237.06;;;4.60;80.99
56894;BME280;43392;50.078;13.704;2023-12-20T22:57:51;96232.53;;;4.61;81.00
56894;BME280;43392;50.078;13.704;2023-12-20T23:00:18;96233.34;;;4.61;81.08
56894;BME280;43392;50.078;13.704;2023-12-20T23:02:50;96227.22;;;4.61;81.05
56894;BME280;43392;50.078;13.704;2023-12-20T23:05:17;96234.16;;;4.62;81.18
56894;BME280;43392;50.078;13.704;2023-12-20T23:07:44;96231.50;;;4.62;81.10
56894;BME280;43392;50.078;13.704;2023-12-20T23:10:11;96228.03;;;4.61;81.03
56894;BME280;43392;50.078;13.704;2023-12-20T23:12:38;96227.78;;;4.63;81.15
56894;BME280;43392;50.078;13.704;2023-12-20T23:15:07;96220.38;;;4.65;81.33
56894;BME280;43392;50.078;13.704;2023-12-20T23:17:34;96213.19;;;4.65;81.11
56894;BME280;43392;50.078;13.704;2023-12-20T23:20:00;96196.72;;;4.63;81.07
56894;BME280;43392;50.078;13.704;2023-12-20T23:22:27;96196.47;;;4.65;81.03
56894;BME280;43392;50.078;13.704;2023-12-20T23:24:53;96186.38;;;4.62;81.13
56894;BME280;43392;50.078;13.704;2023-12-20T23:27:20;96189.56;;;4.64;81.03
56894;BME280;43392;50.078;13.704;2023-12-20T23:29:47;96182.41;;;4.64;81.25
56894;BME280;43392;50.078;13.704;2023-12-20T23:32:15;96165.38;;;4.65;81.25
56894;BME280;43392;50.078;13.704;2023-12-20T23:34:41;96161.38;;;4.63;81.36
56894;BME280;43392;50.078;13.704;2023-12-20T23:37:08;96164.63;;;4.65;81.20
56894;BME280;43392;50.078;13.704;2023-12-20T23:39:36;96150.78;;;4.63;81.41
56894;BME280;43392;50.078;13.704;2023-12-20T23:42:03;96163.78;;;4.59;81.61
56894;BME280;43392;50.078;13.704;2023-12-20T23:44:30;96154.47;;;4.57;81.56
56894;BME280;43392;50.078;13.704;2023-12-20T23:46:57;96157.13;;;4.57;81.86
56894;BME280;43392;50.078;13.704;2023-12-20T23:49:25;96155.00;;;4.59;81.84
56894;BME280;43392;50.078;13.704;2023-12-20T23:51:52;96146.00;;;4.60;82.06
56894;BME280;43392;50.078;13.704;2023-12-20T23:54:18;96138.56;;;4.62;81.83
56894;BME280;43392;50.078;13.704;2023-12-20T23:56:46;96142.03;;;4.62;81.91
56894;BME280;43392;50.078;13.704;2023-12-20T23:59:13;96137.50;;;4.63;81.90
